createdAt,value
2017-09-25T00:00:04.740Z,10.59
2017-09-25T00:00:45.335Z,10.67
2017-09-25T00:01:25.908Z,10.48
2017-09-25T00:02:06.492Z,10.56
2017-09-25T00:02:47.042Z,10.51
2017-09-25T00:03:27.598Z,10.48
2017-09-25T00:04:08.165Z,10.45
2017-09-25T00:04:48.728Z,10.45
2017-09-25T00:05:29.311Z,10.4
2017-09-25T00:06:09.873Z,10.47
2017-09-25T00:06:50.443Z,10.48
2017-09-25T00:07:31.023Z,10.45
2017-09-25T00:08:11.590Z,10.4
2017-09-25T00:08:52.174Z,10.48
2017-09-25T00:09:32.750Z,10.48
2017-09-25T00:10:13.315Z,10.47
2017-09-25T00:10:53.893Z,10.42
2017-09-25T00:11:34.463Z,10.42
2017-09-25T00:12:15.039Z,10.45
2017-09-25T00:12:55.618Z,10.38
2017-09-25T00:13:36.181Z,10.4
2017-09-25T00:14:16.758Z,10.36
2017-09-25T00:14:57.341Z,10.32
2017-09-25T00:15:37.906Z,10.38
2017-09-25T00:16:18.479Z,10.42
2017-09-25T00:16:59.033Z,10.32
2017-09-25T00:17:39.586Z,10.33
2017-09-25T00:18:20.136Z,10.29
2017-09-25T00:19:00.707Z,10.26
2017-09-25T00:19:41.281Z,10.26
2017-09-25T00:20:22.385Z,10.25
2017-09-25T00:21:02.965Z,10.25
2017-09-25T00:21:43.533Z,10.23
2017-09-25T00:22:24.110Z,10.15
2017-09-25T00:23:04.682Z,10.09
2017-09-25T00:23:45.249Z,10.15
2017-09-25T00:24:25.833Z,10.09
2017-09-25T00:25:06.400Z,10.11
2017-09-25T00:25:46.978Z,9.97
2017-09-25T00:26:27.532Z,10.05
2017-09-25T00:27:08.083Z,10.05
2017-09-25T00:27:48.647Z,10.01
2017-09-25T00:28:29.219Z,10.01
2017-09-25T00:29:10.296Z,9.96
2017-09-25T00:29:50.882Z,9.9
2017-09-25T00:30:32.398Z,9.93
2017-09-25T00:31:12.962Z,9.94
2017-09-25T00:31:53.513Z,10.02
2017-09-25T00:32:34.822Z,9.97
2017-09-25T00:33:15.395Z,9.9
2017-09-25T00:33:55.994Z,9.9
2017-09-25T00:34:36.562Z,9.86
2017-09-25T00:35:18.079Z,9.87
2017-09-25T00:35:58.652Z,9.81
2017-09-25T00:36:39.224Z,9.78
2017-09-25T00:37:19.811Z,9.74
2017-09-25T00:38:00.386Z,9.69
2017-09-25T00:38:40.956Z,9.78
2017-09-25T00:39:21.531Z,9.76
2017-09-25T00:40:02.123Z,9.69
2017-09-25T00:40:42.696Z,9.64
2017-09-25T00:41:23.303Z,9.71
2017-09-25T00:42:03.884Z,9.56
2017-09-25T00:42:44.458Z,9.57
2017-09-25T00:43:25.025Z,9.64
2017-09-25T00:44:05.588Z,9.56
2017-09-25T00:44:46.139Z,9.56
2017-09-25T00:45:26.749Z,9.53
2017-09-25T00:46:07.292Z,9.56
2017-09-25T00:46:47.865Z,9.54
2017-09-25T00:47:29.198Z,9.53
2017-09-25T00:48:09.774Z,9.54
2017-09-25T00:48:50.358Z,9.58
2017-09-25T00:49:30.940Z,9.64
2017-09-25T00:50:11.515Z,9.54
2017-09-25T00:50:52.087Z,9.57
2017-09-25T00:51:32.669Z,9.66
2017-09-25T00:52:13.243Z,9.48
2017-09-25T00:52:53.816Z,9.61
2017-09-25T00:53:34.397Z,9.54
2017-09-25T00:54:14.956Z,9.53
2017-09-25T00:54:55.538Z,9.51
2017-09-25T00:55:36.112Z,9.53
2017-09-25T00:56:16.672Z,9.51
2017-09-25T00:56:57.238Z,9.51
2017-09-25T00:57:37.800Z,9.51
2017-09-25T00:58:18.364Z,9.51
2017-09-25T00:58:58.947Z,9.47
2017-09-25T00:59:39.528Z,9.48
2017-09-25T01:00:20.109Z,9.5
2017-09-25T01:01:00.688Z,9.39
2017-09-25T01:01:41.264Z,9.38
2017-09-25T01:02:21.841Z,9.32
2017-09-25T01:03:02.426Z,9.36
2017-09-25T01:03:42.964Z,9.33
2017-09-25T01:04:23.521Z,9.18
2017-09-25T01:05:04.090Z,9.14
2017-09-25T01:05:44.674Z,9.28
2017-09-25T01:06:25.256Z,9.21
2017-09-25T01:07:06.791Z,9.23
2017-09-25T01:07:47.368Z,9.21
2017-09-25T01:08:27.933Z,9.2
2017-09-25T01:09:08.494Z,9.14
2017-09-25T01:09:49.075Z,9.23
2017-09-25T01:10:29.658Z,9.26
2017-09-25T01:11:10.238Z,9.21
2017-09-25T01:11:50.824Z,9.21
2017-09-25T01:12:31.388Z,9.15
2017-09-25T01:13:11.965Z,9.18
2017-09-25T01:13:53.393Z,9.2
2017-09-25T01:14:33.955Z,9.21
2017-09-25T01:15:14.532Z,9.18
2017-09-25T01:15:55.109Z,9.17
2017-09-25T01:16:35.669Z,9.2
2017-09-25T01:17:16.793Z,9.14
2017-09-25T01:17:57.357Z,9.18
2017-09-25T01:18:37.929Z,9.18
2017-09-25T01:19:18.486Z,9.11
2017-09-25T01:19:59.060Z,9.15
2017-09-25T01:20:39.621Z,9.11
2017-09-25T01:21:20.190Z,9.05
2017-09-25T01:22:00.765Z,8.98
2017-09-25T01:22:41.328Z,8.99
2017-09-25T01:23:21.900Z,9.01
2017-09-25T01:24:02.486Z,8.98
2017-09-25T01:24:43.073Z,9.13
2017-09-25T01:25:23.650Z,9.04
2017-09-25T01:26:04.218Z,8.92
2017-09-25T01:26:44.801Z,8.98
2017-09-25T01:27:25.378Z,8.94
2017-09-25T01:28:05.949Z,8.94
2017-09-25T01:28:46.517Z,8.89
2017-09-25T01:29:27.096Z,8.89
2017-09-25T01:30:07.662Z,8.83
2017-09-25T01:30:48.243Z,8.81
2017-09-25T01:31:28.821Z,8.83
2017-09-25T01:32:09.399Z,8.8
2017-09-25T01:32:49.976Z,8.81
2017-09-25T01:33:30.548Z,8.77
2017-09-25T01:34:11.116Z,8.76
2017-09-25T01:34:51.706Z,8.77
2017-09-25T01:35:32.276Z,8.77
2017-09-25T01:36:12.855Z,8.79
2017-09-25T01:36:53.423Z,8.71
2017-09-25T01:37:34.001Z,8.66
2017-09-25T01:38:14.580Z,8.73
2017-09-25T01:38:55.152Z,8.73
2017-09-25T01:39:35.719Z,8.73
2017-09-25T01:40:16.301Z,8.7
2017-09-25T01:40:56.889Z,8.7
2017-09-25T01:41:37.460Z,8.7
2017-09-25T01:42:18.026Z,8.74
2017-09-25T01:44:30.865Z,8.76
2017-09-25T01:45:11.453Z,8.76
2017-09-25T01:45:52.029Z,8.61
2017-09-25T01:46:32.604Z,8.7
2017-09-25T01:47:13.183Z,8.71
2017-09-25T01:47:53.765Z,8.7
2017-09-25T01:48:34.335Z,8.76
2017-09-25T01:49:14.884Z,8.76
2017-09-25T01:49:55.462Z,8.61
2017-09-25T01:50:36.036Z,8.63
2017-09-25T01:51:16.616Z,8.61
2017-09-25T01:51:57.192Z,8.61
2017-09-25T01:52:37.773Z,8.62
2017-09-25T01:53:18.349Z,8.66
2017-09-25T01:53:59.615Z,8.59
2017-09-25T01:54:40.183Z,8.63
2017-09-25T01:55:20.758Z,8.65
2017-09-25T01:56:01.324Z,8.59
2017-09-25T01:56:41.900Z,8.58
2017-09-25T01:57:22.480Z,8.62
2017-09-25T01:58:03.056Z,8.62
2017-09-25T02:00:15.906Z,8.58
2017-09-25T02:00:56.480Z,8.47
2017-09-25T02:01:37.061Z,8.48
2017-09-25T02:02:17.621Z,8.41
2017-09-25T02:02:58.195Z,8.41
2017-09-25T02:03:38.772Z,8.44
2017-09-25T02:04:19.353Z,8.53
2017-09-25T02:04:59.933Z,8.44
2017-09-25T02:05:40.508Z,8.53
2017-09-25T02:06:21.080Z,8.4
2017-09-25T02:07:01.655Z,8.45
2017-09-25T02:07:42.224Z,8.4
2017-09-25T02:08:22.778Z,8.44
2017-09-25T02:09:03.353Z,8.44
2017-09-25T02:09:43.919Z,8.44
2017-09-25T02:10:24.491Z,8.44
2017-09-25T02:11:05.070Z,8.45
2017-09-25T02:11:45.650Z,8.37
2017-09-25T02:12:26.229Z,8.4
2017-09-25T02:13:06.811Z,8.37
2017-09-25T02:13:47.390Z,8.45
2017-09-25T02:14:27.968Z,8.41
2017-09-25T02:15:08.531Z,8.45
2017-09-25T02:15:49.113Z,8.37
2017-09-25T02:16:29.696Z,8.47
2017-09-25T02:17:10.269Z,8.41
2017-09-25T02:17:50.856Z,8.36
2017-09-25T02:18:31.426Z,8.52
2017-09-25T02:19:12.004Z,8.4
2017-09-25T02:19:52.566Z,8.47
2017-09-25T02:20:33.149Z,8.38
2017-09-25T02:21:13.816Z,8.41
2017-09-25T02:21:54.399Z,8.43
2017-09-25T02:22:34.972Z,8.41
2017-09-25T02:23:15.542Z,8.43
2017-09-25T02:23:56.128Z,8.41
2017-09-25T02:24:36.706Z,8.41
2017-09-25T02:25:17.291Z,8.44
2017-09-25T02:25:57.854Z,8.38
2017-09-25T02:26:38.433Z,8.3
2017-09-25T02:28:25.951Z,8.29
2017-09-25T02:29:06.528Z,8.3
2017-09-25T02:29:47.104Z,8.28
2017-09-25T02:30:27.682Z,8.33
2017-09-25T02:31:08.258Z,8.26
2017-09-25T02:31:48.838Z,8.22
2017-09-25T02:32:29.420Z,8.2
2017-09-25T02:33:09.995Z,8.15
2017-09-25T02:33:50.551Z,8.18
2017-09-25T02:34:31.128Z,8.15
2017-09-25T02:35:11.715Z,8.2
2017-09-25T02:35:52.281Z,8.16
2017-09-25T02:36:32.860Z,8.15
2017-09-25T02:37:13.440Z,8.16
2017-09-25T02:37:54.021Z,8.07
2017-09-25T02:38:34.600Z,8.08
2017-09-25T02:39:15.167Z,8.08
2017-09-25T02:39:55.752Z,8.04
2017-09-25T02:40:36.324Z,8.04
2017-09-25T02:41:16.883Z,8.04
2017-09-25T02:41:57.467Z,7.97
2017-09-25T02:42:38.083Z,8
2017-09-25T02:43:18.660Z,8.05
2017-09-25T02:43:59.241Z,8
2017-09-25T02:44:39.821Z,8.02
2017-09-25T02:45:20.401Z,8.05
2017-09-25T02:46:00.972Z,8
2017-09-25T02:46:41.556Z,8.04
2017-09-25T02:47:22.141Z,8.04
2017-09-25T02:48:02.726Z,8.04
2017-09-25T02:48:43.301Z,8.02
2017-09-25T02:49:23.870Z,8.07
2017-09-25T02:50:04.448Z,8.04
2017-09-25T02:50:45.024Z,8.01
2017-09-25T02:51:25.615Z,8.01
2017-09-25T02:52:06.202Z,7.93
2017-09-25T02:52:46.775Z,7.89
2017-09-25T02:53:27.348Z,7.9
2017-09-25T02:54:07.919Z,8.05
2017-09-25T02:54:48.506Z,7.97
2017-09-25T02:55:29.092Z,7.93
2017-09-25T02:56:10.319Z,7.93
2017-09-25T02:56:50.896Z,7.95
2017-09-25T02:57:31.470Z,7.85
2017-09-25T02:58:12.039Z,7.79
2017-09-25T02:58:53.189Z,7.8
2017-09-25T02:59:33.744Z,7.79
2017-09-25T03:00:14.330Z,7.79
2017-09-25T03:00:54.892Z,7.75
2017-09-25T03:01:35.470Z,7.79
2017-09-25T03:02:16.042Z,7.8
2017-09-25T03:02:56.625Z,7.77
2017-09-25T03:03:37.214Z,7.82
2017-09-25T03:04:17.808Z,7.82
2017-09-25T03:04:58.389Z,7.77
2017-09-25T03:05:38.981Z,7.82
2017-09-25T03:06:19.562Z,7.82
2017-09-25T03:07:00.131Z,7.72
2017-09-25T03:07:40.712Z,7.83
2017-09-25T03:08:21.277Z,7.75
2017-09-25T03:09:01.852Z,7.77
2017-09-25T03:09:42.418Z,7.71
2017-09-25T03:10:22.989Z,7.79
2017-09-25T03:11:05.535Z,7.79
2017-09-25T03:11:47.171Z,7.8
2017-09-25T03:12:27.702Z,7.74
2017-09-25T03:13:08.280Z,7.71
2017-09-25T03:13:48.852Z,7.74
2017-09-25T03:14:29.416Z,7.77
2017-09-25T03:15:09.987Z,7.64
2017-09-25T03:15:50.562Z,7.67
2017-09-25T03:16:31.136Z,7.64
2017-09-25T03:17:11.708Z,7.64
2017-09-25T03:17:52.322Z,7.63
2017-09-25T03:18:32.951Z,7.75
2017-09-25T03:19:13.593Z,7.64
2017-09-25T03:19:54.380Z,7.79
2017-09-25T03:20:35.015Z,7.71
2017-09-25T03:21:15.654Z,7.57
2017-09-25T03:21:56.270Z,7.61
2017-09-25T03:22:36.848Z,7.61
2017-09-25T03:23:17.482Z,7.68
2017-09-25T03:23:58.146Z,7.58
2017-09-25T03:24:38.768Z,7.58
2017-09-25T03:25:19.346Z,7.45
2017-09-25T03:25:59.926Z,7.55
2017-09-25T03:26:40.499Z,7.46
2017-09-25T03:27:21.109Z,7.49
2017-09-25T03:28:01.685Z,7.48
2017-09-25T03:28:42.286Z,7.55
2017-09-25T03:29:22.856Z,7.55
2017-09-25T03:30:03.426Z,7.57
2017-09-25T03:30:44.039Z,7.55
2017-09-25T03:31:24.685Z,7.55
2017-09-25T03:32:05.299Z,7.61
2017-09-25T03:32:45.936Z,7.6
2017-09-25T03:33:26.549Z,7.67
2017-09-25T03:34:08.219Z,7.58
2017-09-25T03:34:58.735Z,7.48
2017-09-25T03:35:40.160Z,7.45
2017-09-25T03:36:21.858Z,7.49
2017-09-25T03:37:02.360Z,7.5
2017-09-25T03:37:42.995Z,7.46
2017-09-25T03:38:24.529Z,7.39
2017-09-25T03:39:05.143Z,7.4
2017-09-25T03:39:45.944Z,7.42
2017-09-25T03:40:26.535Z,7.39
2017-09-25T03:41:07.364Z,7.45
2017-09-25T03:43:36.099Z,7.49
2017-09-25T03:44:16.752Z,7.37
2017-09-25T03:44:58.378Z,7.39
2017-09-25T03:45:38.982Z,7.43
2017-09-25T03:46:19.634Z,7.37
2017-09-25T03:47:00.308Z,7.39
2017-09-25T03:47:40.875Z,7.3
2017-09-25T03:48:21.485Z,7.39
2017-09-25T03:49:02.221Z,7.34
2017-09-25T03:49:42.769Z,7.31
2017-09-25T03:50:23.361Z,7.34
2017-09-25T03:51:03.953Z,7.32
2017-09-25T03:51:44.493Z,7.34
2017-09-25T03:52:25.053Z,7.3
2017-09-25T03:53:05.609Z,7.37
2017-09-25T03:53:46.170Z,7.32
2017-09-25T03:54:26.713Z,7.27
2017-09-25T03:55:07.267Z,7.28
2017-09-25T03:55:47.857Z,7.31
2017-09-25T03:56:28.415Z,7.3
2017-09-25T03:57:08.975Z,7.3
2017-09-25T03:57:49.558Z,7.34
2017-09-25T03:58:30.132Z,7.27
2017-09-25T03:59:10.702Z,7.3
2017-09-25T03:59:51.277Z,7.39
2017-09-25T04:00:31.854Z,7.25
2017-09-25T04:01:12.413Z,7.34
2017-09-25T04:01:52.978Z,7.37
2017-09-25T04:02:33.553Z,7.34
2017-09-25T04:03:14.135Z,7.31
2017-09-25T04:03:54.708Z,7.45
2017-09-25T04:04:35.257Z,7.39
2017-09-25T04:05:15.817Z,7.4
2017-09-25T04:05:56.382Z,7.37
2017-09-25T04:06:36.944Z,7.43
2017-09-25T04:07:17.498Z,7.37
2017-09-25T04:07:58.097Z,7.31
2017-09-25T04:08:38.646Z,7.39
2017-09-25T04:09:19.224Z,7.34
2017-09-25T04:09:59.784Z,7.3
2017-09-25T04:10:40.359Z,7.32
2017-09-25T04:11:20.919Z,7.32
2017-09-25T04:12:01.482Z,7.27
2017-09-25T04:12:42.027Z,7.34
2017-09-25T04:13:22.596Z,7.2
2017-09-25T04:14:03.151Z,7.15
2017-09-25T04:14:43.705Z,7.2
2017-09-25T04:15:24.277Z,7.16
2017-09-25T04:16:04.832Z,7.2
2017-09-25T04:16:45.391Z,7.16
2017-09-25T04:17:25.941Z,7.23
2017-09-25T04:18:06.498Z,7.15
2017-09-25T04:18:47.050Z,7.15
2017-09-25T04:19:27.616Z,7.13
2017-09-25T04:20:08.173Z,7.12
2017-09-25T04:20:49.309Z,7.16
2017-09-25T04:21:29.884Z,7.13
2017-09-25T04:22:10.414Z,7.05
2017-09-25T04:22:50.996Z,7.12
2017-09-25T04:23:31.555Z,7.12
2017-09-25T04:24:12.104Z,7.13
2017-09-25T04:24:52.665Z,7.16
2017-09-25T04:25:33.255Z,7.17
2017-09-25T04:26:13.781Z,7.2
2017-09-25T04:26:54.335Z,7.24
2017-09-25T04:27:34.896Z,7.2
2017-09-25T04:28:15.438Z,7.15
2017-09-25T04:28:55.982Z,7.28
2017-09-25T04:29:36.542Z,7.17
2017-09-25T04:30:17.110Z,7.21
2017-09-25T04:30:57.629Z,7.23
2017-09-25T04:31:38.188Z,7.24
2017-09-25T04:32:18.709Z,7.15
2017-09-25T04:32:59.260Z,7.2
2017-09-25T04:33:39.819Z,7.16
2017-09-25T04:34:20.365Z,7.17
2017-09-25T04:35:00.907Z,7.21
2017-09-25T04:35:41.471Z,7.15
2017-09-25T04:36:22.030Z,7.17
2017-09-25T04:37:02.583Z,7.13
2017-09-25T04:37:43.130Z,7.13
2017-09-25T04:38:23.705Z,7.17
2017-09-25T04:39:04.226Z,7.13
2017-09-25T04:39:44.787Z,7.15
2017-09-25T04:40:25.350Z,7.13
2017-09-25T04:42:17.964Z,7.13
2017-09-25T04:42:58.511Z,7.15
2017-09-25T04:43:39.045Z,7.06
2017-09-25T04:44:19.575Z,7.06
2017-09-25T04:45:56.949Z,7.07
2017-09-25T04:46:37.472Z,6.94
2017-09-25T04:47:18.026Z,6.94
2017-09-25T04:47:58.576Z,7.05
2017-09-25T04:49:35.976Z,7.02
2017-09-25T04:50:16.511Z,7.09
2017-09-25T04:50:57.071Z,7.03
2017-09-25T04:51:37.640Z,7.03
2017-09-25T04:52:18.204Z,7.06
2017-09-25T04:52:58.736Z,7.05
2017-09-25T04:53:39.327Z,7.13
2017-09-25T04:54:19.856Z,7.12
2017-09-25T04:55:00.389Z,7.17
2017-09-25T04:55:55.835Z,7.23
2017-09-25T04:56:36.367Z,7.15
2017-09-25T04:57:16.915Z,7.16
2017-09-25T04:57:57.504Z,7.32
2017-09-25T04:58:38.069Z,7.3
2017-09-25T04:59:18.648Z,7.27
2017-09-25T04:59:59.173Z,7.25
2017-09-25T05:00:39.751Z,7.3
2017-09-25T05:01:20.267Z,7.28
2017-09-25T05:02:00.832Z,7.27
2017-09-25T05:02:41.376Z,7.16
2017-09-25T05:03:21.956Z,7.2
2017-09-25T05:04:02.529Z,7.16
2017-09-25T05:04:43.086Z,7.13
2017-09-25T05:05:23.630Z,7.17
2017-09-25T05:06:04.192Z,7.15
2017-09-25T05:06:44.753Z,7.12
2017-09-25T05:07:25.338Z,7.15
2017-09-25T05:08:05.882Z,7.17
2017-09-25T05:08:46.425Z,7.24
2017-09-25T05:09:26.974Z,7.21
2017-09-25T05:10:07.562Z,7.13
2017-09-25T05:10:48.137Z,7.3
2017-09-25T05:11:28.685Z,7.32
2017-09-25T05:12:09.239Z,7.31
2017-09-25T05:14:22.164Z,7.32
2017-09-25T05:15:02.598Z,7.37
2017-09-25T05:15:43.146Z,7.4
2017-09-25T05:16:23.723Z,7.31
2017-09-25T05:17:04.249Z,7.3
2017-09-25T05:17:44.817Z,7.3
2017-09-25T05:18:25.368Z,7.28
2017-09-25T05:19:05.940Z,7.17
2017-09-25T05:19:46.483Z,7.21
2017-09-25T05:20:27.053Z,7.28
2017-09-25T05:21:07.593Z,7.3
2017-09-25T05:21:48.186Z,7.37
2017-09-25T05:22:28.743Z,7.42
2017-09-25T05:23:09.296Z,7.48
2017-09-25T05:25:22.132Z,7.45
2017-09-25T05:26:02.674Z,7.37
2017-09-25T05:26:43.248Z,7.42
2017-09-25T05:27:23.813Z,7.45
2017-09-25T05:28:04.397Z,7.48
2017-09-25T05:28:44.986Z,7.46
2017-09-25T05:29:25.537Z,7.53
2017-09-25T05:30:06.114Z,7.69
2017-09-25T05:30:46.670Z,7.6
2017-09-25T05:31:27.188Z,7.67
2017-09-25T05:32:07.737Z,7.69
2017-09-25T05:32:48.296Z,7.68
2017-09-25T05:33:28.856Z,7.69
2017-09-25T05:34:09.412Z,7.72
2017-09-25T05:34:49.961Z,7.8
2017-09-25T05:35:30.504Z,7.8
2017-09-25T05:36:11.066Z,7.86
2017-09-25T05:36:53.420Z,7.83
2017-09-25T05:37:34.091Z,7.9
2017-09-25T05:38:14.768Z,7.82
2017-09-25T05:38:55.316Z,7.92
2017-09-25T05:39:35.895Z,7.93
2017-09-25T05:40:16.475Z,8.01
2017-09-25T05:40:57.043Z,8
2017-09-25T05:41:37.583Z,7.93
2017-09-25T05:42:18.156Z,7.98
2017-09-25T05:42:58.693Z,8.01
2017-09-25T05:43:39.270Z,8.02
2017-09-25T05:45:16.613Z,8.15
2017-09-25T05:45:57.179Z,8.18
2017-09-25T05:46:37.733Z,8.23
2017-09-25T05:47:18.310Z,8.19
2017-09-25T05:47:58.872Z,8.2
2017-09-25T05:48:39.423Z,8.28
2017-09-25T05:49:19.988Z,8.3
2017-09-25T05:50:00.562Z,8.23
2017-09-25T05:50:41.099Z,8.36
2017-09-25T05:51:21.688Z,8.28
2017-09-25T05:52:02.228Z,8.34
2017-09-25T05:52:42.803Z,8.36
2017-09-25T05:53:23.353Z,8.37
2017-09-25T05:54:03.917Z,8.36
2017-09-25T05:54:44.526Z,8.43
2017-09-25T05:55:25.084Z,8.29
2017-09-25T05:56:05.653Z,8.44
2017-09-25T05:56:46.222Z,8.43
2017-09-25T05:57:26.801Z,8.44
2017-09-25T05:58:07.375Z,8.44
2017-09-25T05:58:47.945Z,8.44
2017-09-25T05:59:28.510Z,8.48
2017-09-25T06:00:09.088Z,8.48
2017-09-25T06:00:49.654Z,8.55
2017-09-25T06:01:30.208Z,8.59
2017-09-25T06:02:10.811Z,8.47
2017-09-25T06:02:51.358Z,8.53
2017-09-25T06:03:31.908Z,8.65
2017-09-25T06:04:12.475Z,8.61
2017-09-25T06:04:53.032Z,8.61
2017-09-25T06:05:33.609Z,8.73
2017-09-25T06:06:14.176Z,8.77
2017-09-25T06:06:54.747Z,8.73
2017-09-25T06:07:35.317Z,8.81
2017-09-25T06:08:15.880Z,8.84
2017-09-25T06:08:56.454Z,8.96
2017-09-25T06:09:37.012Z,8.96
2017-09-25T06:10:17.578Z,8.98
2017-09-25T06:10:58.160Z,8.99
2017-09-25T06:11:38.758Z,9.14
2017-09-25T06:12:19.300Z,9.14
2017-09-25T06:12:59.895Z,9.18
2017-09-25T06:13:40.436Z,9.1
2017-09-25T06:14:20.985Z,9.15
2017-09-25T06:15:01.547Z,9.17
2017-09-25T06:15:42.109Z,9.21
2017-09-25T06:16:22.674Z,9.2
2017-09-25T06:17:03.245Z,9.2
2017-09-25T06:17:43.824Z,9.32
2017-09-25T06:18:24.411Z,9.39
2017-09-25T06:19:04.937Z,9.39
2017-09-25T06:19:45.481Z,9.43
2017-09-25T06:20:26.050Z,9.47
2017-09-25T06:21:06.628Z,9.57
2017-09-25T06:21:47.180Z,9.6
2017-09-25T06:22:27.751Z,9.65
2017-09-25T06:23:08.315Z,9.86
2017-09-25T06:23:48.889Z,9.96
2017-09-25T06:24:29.467Z,10.08
2017-09-25T06:25:24.993Z,10.32
2017-09-25T06:26:05.564Z,10.55
2017-09-25T06:26:46.113Z,10.61
2017-09-25T06:27:26.674Z,10.68
2017-09-25T06:28:07.240Z,10.74
2017-09-25T06:28:47.828Z,10.86
2017-09-25T06:29:28.394Z,10.94
2017-09-25T06:30:08.965Z,10.96
2017-09-25T06:30:49.540Z,11.07
2017-09-25T06:31:30.111Z,11.07
2017-09-25T06:32:10.685Z,11.15
2017-09-25T06:32:51.249Z,11.14
2017-09-25T06:33:31.806Z,11.15
2017-09-25T06:34:12.387Z,11.14
2017-09-25T06:34:52.964Z,11.06
2017-09-25T06:35:33.537Z,11.25
2017-09-25T06:36:14.107Z,11.43
2017-09-25T06:36:54.676Z,11.94
2017-09-25T06:37:35.245Z,12.46
2017-09-25T06:38:15.825Z,13.28
2017-09-25T06:38:56.398Z,14.09
2017-09-25T06:39:36.973Z,15.07
2017-09-25T06:40:17.550Z,15.71
2017-09-25T06:40:58.127Z,16.27
2017-09-25T06:41:38.706Z,16.78
2017-09-25T06:42:19.291Z,17.36
2017-09-25T06:42:59.870Z,17.63
2017-09-25T06:43:40.443Z,18.07
2017-09-25T06:44:21.025Z,18.45
2017-09-25T06:45:01.603Z,18.67
2017-09-25T06:45:42.185Z,18.98
2017-09-25T06:46:22.762Z,19.37
2017-09-25T06:47:03.333Z,19.54
2017-09-25T06:47:43.911Z,19.59
2017-09-25T06:48:24.484Z,19.55
2017-09-25T06:49:05.066Z,19.76
2017-09-25T06:49:45.644Z,19.87
2017-09-25T06:50:26.216Z,20.28
2017-09-25T06:51:06.799Z,20.54
2017-09-25T06:51:47.386Z,20.99
2017-09-25T06:52:27.974Z,21.07
2017-09-25T06:53:08.559Z,21.16
2017-09-25T06:53:49.134Z,21.22
2017-09-25T06:54:29.725Z,21.16
2017-09-25T06:55:10.310Z,21.12
2017-09-25T06:55:50.894Z,21.16
2017-09-25T06:56:31.461Z,20.82
2017-09-25T06:57:12.050Z,20.41
2017-09-25T06:57:52.625Z,20.51
2017-09-25T06:58:33.205Z,20.33
2017-09-25T06:59:13.783Z,20.48
2017-09-25T06:59:54.371Z,20.5
2017-09-25T07:00:34.953Z,20.74
2017-09-25T07:01:15.516Z,20.82
2017-09-25T07:01:56.097Z,20.72
2017-09-25T07:02:36.682Z,20.21
2017-09-25T07:03:17.269Z,20.02
2017-09-25T07:03:57.846Z,20.41
2017-09-25T07:04:38.427Z,20.57
2017-09-25T07:05:19.016Z,20.52
2017-09-25T07:05:59.601Z,20.58
2017-09-25T07:06:40.176Z,20.91
2017-09-25T07:07:20.766Z,21.06
2017-09-25T07:08:01.350Z,21.5
2017-09-25T07:08:41.930Z,22
2017-09-25T07:09:22.528Z,22.42
2017-09-25T07:10:03.109Z,22.83
2017-09-25T07:10:45.221Z,22.82
2017-09-25T07:11:26.372Z,22.62
2017-09-25T07:12:06.959Z,22.37
2017-09-25T07:12:47.541Z,22.4
2017-09-25T07:13:30.004Z,22.43
2017-09-25T07:14:11.539Z,22.92
2017-09-25T07:14:52.072Z,22.98
2017-09-25T07:15:32.664Z,23.31
2017-09-25T07:16:13.238Z,23.35
2017-09-25T07:16:53.877Z,23.65
2017-09-25T07:17:34.432Z,23.85
2017-09-25T07:18:15.041Z,23.97
2017-09-25T07:18:55.619Z,23.91
2017-09-25T07:19:36.197Z,23.85
2017-09-25T07:20:16.784Z,23.87
2017-09-25T07:20:57.353Z,23.87
2017-09-25T07:21:37.937Z,23.55
2017-09-25T07:22:18.512Z,23.7
2017-09-25T07:22:59.106Z,24.08
2017-09-25T07:23:39.724Z,24.46
2017-09-25T07:24:20.319Z,24.96
2017-09-25T07:25:00.918Z,25.02
2017-09-25T07:25:41.475Z,24.87
2017-09-25T07:26:22.067Z,24.5
2017-09-25T07:27:02.663Z,24.43
2017-09-25T07:27:43.244Z,24.32
2017-09-25T07:28:23.802Z,24.32
2017-09-25T07:29:04.362Z,24.73
2017-09-25T07:29:44.938Z,24.52
2017-09-25T07:30:25.513Z,24.39
2017-09-25T07:31:21.010Z,24.12
2017-09-25T07:32:01.587Z,24.21
2017-09-25T07:32:42.200Z,24.81
2017-09-25T07:33:22.781Z,25.32
2017-09-25T07:34:03.391Z,25.97
2017-09-25T07:34:44.012Z,26.44
2017-09-25T07:35:24.568Z,27.02
2017-09-25T07:36:05.163Z,27.21
2017-09-25T07:36:45.785Z,27.65
2017-09-25T07:37:26.314Z,28.03
2017-09-25T07:38:08.934Z,28.3
2017-09-25T07:38:49.526Z,28.18
2017-09-25T07:39:30.086Z,27.99
2017-09-25T07:40:10.648Z,26.87
2017-09-25T07:40:51.235Z,25.94
2017-09-25T07:41:31.804Z,25.65
2017-09-25T07:42:12.336Z,25.13
2017-09-25T07:42:52.909Z,24.49
2017-09-25T07:43:33.480Z,24.6
2017-09-25T07:44:14.024Z,25.08
2017-09-25T07:44:54.580Z,25.87
2017-09-25T07:45:35.164Z,26.72
2017-09-25T07:46:15.757Z,27.04
2017-09-25T07:46:56.314Z,27.4
2017-09-25T07:47:36.924Z,27.72
2017-09-25T07:48:17.485Z,28.19
2017-09-25T07:48:58.081Z,28.3
2017-09-25T07:49:38.623Z,28.15
2017-09-25T07:50:19.172Z,28.44
2017-09-25T07:50:59.757Z,28.62
2017-09-25T07:51:40.344Z,28.73
2017-09-25T07:52:20.888Z,29.05
2017-09-25T07:53:01.485Z,28.88
2017-09-25T07:53:42.029Z,28.96
2017-09-25T07:54:22.614Z,29.36
2017-09-25T07:55:03.163Z,29.52
2017-09-25T07:55:43.723Z,29.15
2017-09-25T07:56:24.319Z,28.29
2017-09-25T07:57:04.899Z,28.22
2017-09-25T07:57:45.474Z,27.97
2017-09-25T07:58:25.996Z,28.04
2017-09-25T07:59:06.575Z,27.51
2017-09-25T07:59:47.123Z,27.7
2017-09-25T08:00:27.680Z,27.41
2017-09-25T08:01:08.282Z,27.36
2017-09-25T08:01:48.822Z,27.5
2017-09-25T08:02:29.462Z,27.63
2017-09-25T08:03:10.031Z,27.99
2017-09-25T08:03:50.554Z,28.49
2017-09-25T08:04:31.140Z,28.61
2017-09-25T08:05:11.676Z,28.61
2017-09-25T08:05:52.243Z,28.92
2017-09-25T08:06:32.826Z,29.3
2017-09-25T08:07:13.408Z,29.61
2017-09-25T08:07:54.967Z,29.65
2017-09-25T08:08:35.509Z,29.55
2017-09-25T08:09:16.060Z,29.64
2017-09-25T08:09:56.642Z,29.57
2017-09-25T08:10:37.202Z,29.46
2017-09-25T08:11:17.788Z,29.05
2017-09-25T08:11:58.357Z,29.21
2017-09-25T08:12:38.919Z,29.68
2017-09-25T08:13:19.489Z,29.86
2017-09-25T08:14:00.046Z,30.16
2017-09-25T08:14:40.612Z,30.7
2017-09-25T08:15:21.182Z,31.13
2017-09-25T08:16:01.747Z,31.28
2017-09-25T08:16:42.365Z,31.57
2017-09-25T08:17:22.866Z,31.28
2017-09-25T08:18:03.467Z,30.73
2017-09-25T08:18:44.041Z,30.39
2017-09-25T08:19:24.608Z,30.27
2017-09-25T08:20:05.161Z,30.08
2017-09-25T08:20:45.706Z,29.67
2017-09-25T08:21:26.280Z,29.86
2017-09-25T08:22:06.868Z,30.04
2017-09-25T08:22:47.415Z,30.47
2017-09-25T08:23:27.961Z,30.38
2017-09-25T08:24:08.570Z,30.15
2017-09-25T08:24:49.116Z,30.1
2017-09-25T08:25:29.729Z,30.34
2017-09-25T08:26:10.335Z,30.31
2017-09-25T08:26:50.936Z,30.46
2017-09-25T08:27:31.535Z,31.02
2017-09-25T08:28:12.146Z,31.44
2017-09-25T08:28:52.732Z,31.7
2017-09-25T08:29:33.332Z,31.95
2017-09-25T08:30:13.918Z,32.18
2017-09-25T08:30:54.528Z,31.84
2017-09-25T08:31:35.144Z,31.7
2017-09-25T08:32:15.773Z,31.26
2017-09-25T08:32:56.348Z,29.95
2017-09-25T08:33:36.924Z,29.61
2017-09-25T08:34:17.586Z,29.48
2017-09-25T08:34:58.182Z,29.37
2017-09-25T08:35:38.785Z,30.1
2017-09-25T08:36:19.406Z,30.67
2017-09-25T08:37:00.021Z,30.88
2017-09-25T08:37:40.609Z,30.47
2017-09-25T08:38:21.201Z,30.07
2017-09-25T08:39:01.784Z,29.45
2017-09-25T08:39:42.407Z,29.37
2017-09-25T08:40:23.096Z,29.42
2017-09-25T08:41:03.658Z,27.99
2017-09-25T08:41:44.302Z,27.13
2017-09-25T08:42:24.852Z,26.57
2017-09-25T08:43:05.426Z,26.95
2017-09-25T08:43:46.031Z,27.4
2017-09-25T08:44:26.591Z,28.07
2017-09-25T08:45:07.217Z,28.85
2017-09-25T08:45:47.836Z,29.33
2017-09-25T08:46:28.443Z,29.85
2017-09-25T08:47:09.066Z,30.39
2017-09-25T08:47:49.723Z,31.07
2017-09-25T08:48:30.288Z,31.12
2017-09-25T08:49:10.911Z,31.38
2017-09-25T08:49:51.493Z,31.28
2017-09-25T08:50:32.093Z,31.38
2017-09-25T08:51:12.754Z,31.54
2017-09-25T08:51:53.327Z,31.02
2017-09-25T08:52:33.932Z,30.6
2017-09-25T08:53:14.557Z,30.1
2017-09-25T08:53:55.144Z,30.31
2017-09-25T08:54:35.741Z,30.22
2017-09-25T08:55:16.368Z,29.7
2017-09-25T08:55:56.934Z,29.27
2017-09-25T08:56:37.539Z,28.83
2017-09-25T08:57:18.123Z,28.52
2017-09-25T08:57:58.733Z,28.55
2017-09-25T08:58:39.283Z,28.81
2017-09-25T08:59:19.845Z,28.64
2017-09-25T09:00:00.426Z,28.78
2017-09-25T09:00:40.989Z,28.66
2017-09-25T09:01:21.562Z,27.96
2017-09-25T09:02:02.102Z,27.67
2017-09-25T09:02:42.670Z,27.81
2017-09-25T09:03:23.262Z,28.27
2017-09-25T09:04:03.845Z,28.43
2017-09-25T09:04:44.387Z,28.12
2017-09-25T09:05:26.803Z,28.18
2017-09-25T09:06:07.332Z,29.04
2017-09-25T09:06:47.921Z,29.95
2017-09-25T09:07:28.491Z,30.29
2017-09-25T09:08:09.080Z,30.98
2017-09-25T09:08:49.646Z,31.96
2017-09-25T09:09:30.184Z,32.75
2017-09-25T09:10:10.768Z,33